sensor_id;sensor_type;location;lat;lon;timestamp;P1;durP1;ratioP1;P2;durP2;ratioP2
31746;SDS011;18319;48.974;8.462;2022-08-20T00:00:44;0.70;;;0.70;;
31746;SDS011;18319;48.974;8.462;2022-08-20T00:03:15;0.70;;;0.70;;
31746;SDS011;18319;48.974;8.462;2022-08-20T00:05:44;0.73;;;0.73;;
31746;SDS011;18319;48.974;8.462;2022-08-20T00:08:13;0.82;;;0.82;;
31746;SDS011;18319;48.974;8.462;2022-08-20T00:10:41;0.57;;;0.57;;
31746;SDS011;18319;48.974;8.462;2022-08-20T00:13:11;3.20;;;0.50;;
31746;SDS011;18319;48.974;8.462;2022-08-20T00:15:48;0.73;;;0.73;;
31746;SDS011;18319;48.974;8.462;2022-08-20T00:18:17;0.95;;;0.93;;
31746;SDS011;18319;48.974;8.462;2022-08-20T00:20:45;0.85;;;0.85;;
31746;SDS011;18319;48.974;8.462;2022-08-20T00:23:14;1.10;;;1.00;;
31746;SDS011;18319;48.974;8.462;2022-08-20T00:25:42;1.63;;;0.65;;
31746;SDS011;18319;48.974;8.462;2022-08-20T00:30:38;1.05;;;0.95;;
31746;SDS011;18319;48.974;8.462;2022-08-20T00:33:07;1.17;;;0.77;;
31746;SDS011;18319;48.974;8.462;2022-08-20T00:35:38;0.93;;;0.90;;
31746;SDS011;18319;48.974;8.462;2022-08-20T00:38:07;2.75;;;1.00;;
31746;SDS011;18319;48.974;8.462;2022-08-20T00:40:36;1.10;;;1.10;;
31746;SDS011;18319;48.974;8.462;2022-08-20T00:43:06;0.90;;;0.80;;
31746;SDS011;18319;48.974;8.462;2022-08-20T00:45:50;0.70;;;0.70;;
31746;SDS011;18319;48.974;8.462;2022-08-20T00:48:20;0.75;;;0.75;;
31746;SDS011;18319;48.974;8.462;2022-08-20T00:50:48;1.30;;;0.90;;
31746;SDS011;18319;48.974;8.462;2022-08-20T00:53:16;1.30;;;1.20;;
31746;SDS011;18319;48.974;8.462;2022-08-20T00:55:45;0.93;;;0.93;;
31746;SDS011;18319;48.974;8.462;2022-08-20T00:58:12;1.20;;;1.10;;
31746;SDS011;18319;48.974;8.462;2022-08-20T01:00:41;2.22;;;2.03;;
31746;SDS011;18319;48.974;8.462;2022-08-20T01:03:12;1.67;;;0.85;;
31746;SDS011;18319;48.974;8.462;2022-08-20T01:05:41;0.88;;;0.88;;
31746;SDS011;18319;48.974;8.462;2022-08-20T01:08:11;1.05;;;1.05;;
31746;SDS011;18319;48.974;8.462;2022-08-20T01:10:41;1.08;;;1.08;;
31746;SDS011;18319;48.974;8.462;2022-08-20T01:13:12;1.10;;;1.00;;
31746;SDS011;18319;48.974;8.462;2022-08-20T01:15:42;1.42;;;0.90;;
31746;SDS011;18319;48.974;8.462;2022-08-20T01:18:11;4.43;;;1.10;;
31746;SDS011;18319;48.974;8.462;2022-08-20T01:20:42;1.35;;;1.25;;
31746;SDS011;18319;48.974;8.462;2022-08-20T01:23:15;1.27;;;1.23;;
31746;SDS011;18319;48.974;8.462;2022-08-20T01:25:56;1.45;;;1.38;;
31746;SDS011;18319;48.974;8.462;2022-08-20T01:28:29;1.50;;;1.40;;
31746;SDS011;18319;48.974;8.462;2022-08-20T01:31:00;1.08;;;1.08;;
31746;SDS011;18319;48.974;8.462;2022-08-20T01:33:28;1.20;;;1.20;;
31746;SDS011;18319;48.974;8.462;2022-08-20T01:35:56;1.30;;;1.20;;
31746;SDS011;18319;48.974;8.462;2022-08-20T01:38:24;2.03;;;1.40;;
31746;SDS011;18319;48.974;8.462;2022-08-20T01:43:46;2.03;;;1.20;;
31746;SDS011;18319;48.974;8.462;2022-08-20T01:46:15;1.50;;;1.30;;
31746;SDS011;18319;48.974;8.462;2022-08-20T01:48:43;1.80;;;1.70;;
31746;SDS011;18319;48.974;8.462;2022-08-20T01:51:12;1.98;;;1.77;;
31746;SDS011;18319;48.974;8.462;2022-08-20T01:53:42;1.60;;;1.50;;
31746;SDS011;18319;48.974;8.462;2022-08-20T01:56:12;2.22;;;1.40;;
31746;SDS011;18319;48.974;8.462;2022-08-20T01:58:44;2.72;;;1.25;;
31746;SDS011;18319;48.974;8.462;2022-08-20T02:01:18;2.00;;;1.80;;
31746;SDS011;18319;48.974;8.462;2022-08-20T02:03:47;1.70;;;1.20;;
31746;SDS011;18319;48.974;8.462;2022-08-20T02:06:14;1.45;;;1.35;;
31746;SDS011;18319;48.974;8.462;2022-08-20T02:08:41;1.92;;;1.40;;
31746;SDS011;18319;48.974;8.462;2022-08-20T02:11:08;3.20;;;1.67;;
31746;SDS011;18319;48.974;8.462;2022-08-20T02:13:37;1.60;;;1.50;;
31746;SDS011;18319;48.974;8.462;2022-08-20T02:16:06;1.65;;;1.55;;
31746;SDS011;18319;48.974;8.462;2022-08-20T02:18:33;1.77;;;1.67;;
31746;SDS011;18319;48.974;8.462;2022-08-20T02:21:00;2.83;;;1.80;;
31746;SDS011;18319;48.974;8.462;2022-08-20T02:23:27;1.63;;;1.52;;
31746;SDS011;18319;48.974;8.462;2022-08-20T02:25:54;2.03;;;1.63;;
31746;SDS011;18319;48.974;8.462;2022-08-20T02:28:21;2.20;;;1.83;;
31746;SDS011;18319;48.974;8.462;2022-08-20T02:30:49;2.28;;;2.08;;
31746;SDS011;18319;48.974;8.462;2022-08-20T02:33:19;2.00;;;1.90;;
31746;SDS011;18319;48.974;8.462;2022-08-20T02:35:47;1.80;;;1.70;;
31746;SDS011;18319;48.974;8.462;2022-08-20T02:38:15;2.30;;;2.20;;
31746;SDS011;18319;48.974;8.462;2022-08-20T02:40:43;2.28;;;2.08;;
31746;SDS011;18319;48.974;8.462;2022-08-20T02:43:10;2.20;;;1.88;;
31746;SDS011;18319;48.974;8.462;2022-08-20T02:45:38;2.10;;;1.70;;
31746;SDS011;18319;48.974;8.462;2022-08-20T02:48:09;3.70;;;2.13;;
31746;SDS011;18319;48.974;8.462;2022-08-20T02:50:42;2.35;;;2.15;;
31746;SDS011;18319;48.974;8.462;2022-08-20T02:53:09;4.70;;;1.92;;
31746;SDS011;18319;48.974;8.462;2022-08-20T02:55:36;2.85;;;2.08;;
31746;SDS011;18319;48.974;8.462;2022-08-20T02:58:03;2.55;;;1.83;;
31746;SDS011;18319;48.974;8.462;2022-08-20T03:00:30;2.15;;;2.05;;
31746;SDS011;18319;48.974;8.462;2022-08-20T03:02:58;2.15;;;2.05;;
31746;SDS011;18319;48.974;8.462;2022-08-20T03:05:25;2.22;;;2.13;;
31746;SDS011;18319;48.974;8.462;2022-08-20T03:07:53;2.78;;;2.63;;
31746;SDS011;18319;48.974;8.462;2022-08-20T03:10:22;1.98;;;1.88;;
31746;SDS011;18319;48.974;8.462;2022-08-20T03:12:50;3.35;;;2.20;;
31746;SDS011;18319;48.974;8.462;2022-08-20T03:15:17;2.35;;;2.25;;
31746;SDS011;18319;48.974;8.462;2022-08-20T03:17:45;6.10;;;2.58;;
31746;SDS011;18319;48.974;8.462;2022-08-20T03:20:13;3.13;;;2.55;;
31746;SDS011;18319;48.974;8.462;2022-08-20T03:22:40;2.10;;;1.95;;
31746;SDS011;18319;48.974;8.462;2022-08-20T03:25:08;2.42;;;2.30;;
31746;SDS011;18319;48.974;8.462;2022-08-20T03:27:36;4.43;;;2.58;;
31746;SDS011;18319;48.974;8.462;2022-08-20T03:30:04;3.45;;;3.15;;
31746;SDS011;18319;48.974;8.462;2022-08-20T03:32:33;2.53;;;2.40;;
31746;SDS011;18319;48.974;8.462;2022-08-20T03:35:00;2.40;;;2.30;;
31746;SDS011;18319;48.974;8.462;2022-08-20T03:37:28;2.53;;;2.42;;
31746;SDS011;18319;48.974;8.462;2022-08-20T03:39:56;2.53;;;2.33;;
31746;SDS011;18319;48.974;8.462;2022-08-20T03:42:24;4.25;;;2.33;;
31746;SDS011;18319;48.974;8.462;2022-08-20T03:44:51;2.72;;;2.53;;
31746;SDS011;18319;48.974;8.462;2022-08-20T03:47:19;2.53;;;2.33;;
31746;SDS011;18319;48.974;8.462;2022-08-20T03:49:46;2.55;;;2.42;;
31746;SDS011;18319;48.974;8.462;2022-08-20T03:52:13;3.17;;;2.50;;
31746;SDS011;18319;48.974;8.462;2022-08-20T03:54:40;2.92;;;2.17;;
31746;SDS011;18319;48.974;8.462;2022-08-20T03:57:11;3.47;;;3.17;;
31746;SDS011;18319;48.974;8.462;2022-08-20T03:59:41;3.13;;;2.92;;
31746;SDS011;18319;48.974;8.462;2022-08-20T04:02:08;3.97;;;2.90;;
31746;SDS011;18319;48.974;8.462;2022-08-20T04:04:36;2.72;;;2.58;;
31746;SDS011;18319;48.974;8.462;2022-08-20T04:07:07;2.78;;;2.67;;
31746;SDS011;18319;48.974;8.462;2022-08-20T04:09:35;5.00;;;3.00;;
31746;SDS011;18319;48.974;8.462;2022-08-20T04:12:04;3.03;;;2.83;;
31746;SDS011;18319;48.974;8.462;2022-08-20T04:14:31;2.38;;;2.17;;
31746;SDS011;18319;48.974;8.462;2022-08-20T04:17:04;2.80;;;2.60;;
31746;SDS011;18319;48.974;8.462;2022-08-20T04:19:32;3.30;;;3.00;;
31746;SDS011;18319;48.974;8.462;2022-08-20T04:21:59;2.88;;;2.42;;
31746;SDS011;18319;48.974;8.462;2022-08-20T04:24:27;3.10;;;2.80;;
31746;SDS011;18319;48.974;8.462;2022-08-20T04:26:54;3.05;;;2.90;;
31746;SDS011;18319;48.974;8.462;2022-08-20T04:29:22;3.08;;;2.83;;
31746;SDS011;18319;48.974;8.462;2022-08-20T04:31:50;2.92;;;2.65;;
31746;SDS011;18319;48.974;8.462;2022-08-20T04:34:18;3.10;;;2.90;;
31746;SDS011;18319;48.974;8.462;2022-08-20T04:36:45;2.53;;;2.40;;
31746;SDS011;18319;48.974;8.462;2022-08-20T04:39:13;4.15;;;2.88;;
31746;SDS011;18319;48.974;8.462;2022-08-20T04:41:40;2.95;;;2.67;;
31746;SDS011;18319;48.974;8.462;2022-08-20T04:44:08;3.42;;;3.22;;
31746;SDS011;18319;48.974;8.462;2022-08-20T04:46:36;2.95;;;2.75;;
31746;SDS011;18319;48.974;8.462;2022-08-20T04:49:05;3.15;;;2.85;;
31746;SDS011;18319;48.974;8.462;2022-08-20T04:51:34;2.85;;;2.75;;
31746;SDS011;18319;48.974;8.462;2022-08-20T04:54:01;2.90;;;2.42;;
31746;SDS011;18319;48.974;8.462;2022-08-20T04:56:29;2.90;;;2.67;;
31746;SDS011;18319;48.974;8.462;2022-08-20T04:58:59;3.05;;;2.85;;
31746;SDS011;18319;48.974;8.462;2022-08-20T05:01:27;4.93;;;3.20;;
31746;SDS011;18319;48.974;8.462;2022-08-20T05:03:54;3.00;;;2.80;;
31746;SDS011;18319;48.974;8.462;2022-08-20T05:06:23;2.75;;;2.58;;
31746;SDS011;18319;48.974;8.462;2022-08-20T05:08:54;2.85;;;2.65;;
31746;SDS011;18319;48.974;8.462;2022-08-20T05:11:23;2.92;;;2.72;;
31746;SDS011;18319;48.974;8.462;2022-08-20T05:13:50;3.42;;;3.20;;
31746;SDS011;18319;48.974;8.462;2022-08-20T05:16:17;3.15;;;2.95;;
31746;SDS011;18319;48.974;8.462;2022-08-20T05:18:45;3.15;;;2.85;;
31746;SDS011;18319;48.974;8.462;2022-08-20T05:21:12;2.80;;;2.60;;
31746;SDS011;18319;48.974;8.462;2022-08-20T05:23:39;2.95;;;2.47;;
31746;SDS011;18319;48.974;8.462;2022-08-20T05:26:08;3.47;;;3.22;;
31746;SDS011;18319;48.974;8.462;2022-08-20T05:28:37;2.88;;;2.67;;
31746;SDS011;18319;48.974;8.462;2022-08-20T05:31:05;3.72;;;3.42;;
31746;SDS011;18319;48.974;8.462;2022-08-20T05:33:33;3.65;;;3.10;;
31746;SDS011;18319;48.974;8.462;2022-08-20T05:36:02;2.72;;;2.63;;
31746;SDS011;18319;48.974;8.462;2022-08-20T05:38:30;3.03;;;2.72;;
31746;SDS011;18319;48.974;8.462;2022-08-20T05:40:59;2.88;;;2.78;;
31746;SDS011;18319;48.974;8.462;2022-08-20T05:43:27;3.47;;;3.15;;
31746;SDS011;18319;48.974;8.462;2022-08-20T05:45:55;3.92;;;3.72;;
31746;SDS011;18319;48.974;8.462;2022-08-20T05:48:23;3.42;;;2.80;;
31746;SDS011;18319;48.974;8.462;2022-08-20T05:50:51;2.88;;;2.67;;
31746;SDS011;18319;48.974;8.462;2022-08-20T05:53:19;3.38;;;2.92;;
31746;SDS011;18319;48.974;8.462;2022-08-20T05:55:47;4.78;;;3.17;;
31746;SDS011;18319;48.974;8.462;2022-08-20T05:58:15;3.28;;;3.08;;
31746;SDS011;18319;48.974;8.462;2022-08-20T06:00:46;3.70;;;3.47;;
31746;SDS011;18319;48.974;8.462;2022-08-20T06:03:13;4.07;;;2.83;;
31746;SDS011;18319;48.974;8.462;2022-08-20T06:05:58;3.40;;;3.15;;
31746;SDS011;18319;48.974;8.462;2022-08-20T06:08:24;3.10;;;2.90;;
31746;SDS011;18319;48.974;8.462;2022-08-20T06:10:51;3.00;;;2.80;;
31746;SDS011;18319;48.974;8.462;2022-08-20T06:13:18;3.30;;;3.05;;
31746;SDS011;18319;48.974;8.462;2022-08-20T06:15:46;2.67;;;2.53;;
31746;SDS011;18319;48.974;8.462;2022-08-20T06:18:13;3.28;;;3.05;;
31746;SDS011;18319;48.974;8.462;2022-08-20T06:20:40;3.83;;;2.78;;
31746;SDS011;18319;48.974;8.462;2022-08-20T06:23:07;3.05;;;2.83;;
31746;SDS011;18319;48.974;8.462;2022-08-20T06:25:34;2.70;;;2.50;;
31746;SDS011;18319;48.974;8.462;2022-08-20T06:28:02;2.70;;;2.50;;
31746;SDS011;18319;48.974;8.462;2022-08-20T06:30:29;3.40;;;2.90;;
31746;SDS011;18319;48.974;8.462;2022-08-20T06:32:57;2.97;;;2.65;;
31746;SDS011;18319;48.974;8.462;2022-08-20T06:35:24;2.85;;;2.63;;
31746;SDS011;18319;48.974;8.462;2022-08-20T06:37:51;2.90;;;2.70;;
31746;SDS011;18319;48.974;8.462;2022-08-20T06:40:19;2.50;;;2.30;;
31746;SDS011;18319;48.974;8.462;2022-08-20T06:42:48;4.60;;;2.58;;
31746;SDS011;18319;48.974;8.462;2022-08-20T06:45:16;3.28;;;2.92;;
31746;SDS011;18319;48.974;8.462;2022-08-20T06:47:45;3.70;;;2.78;;
31746;SDS011;18319;48.974;8.462;2022-08-20T06:50:15;2.53;;;2.33;;
31746;SDS011;18319;48.974;8.462;2022-08-20T06:52:43;3.22;;;3.00;;
31746;SDS011;18319;48.974;8.462;2022-08-20T06:55:11;3.30;;;2.33;;
31746;SDS011;18319;48.974;8.462;2022-08-20T06:57:40;3.40;;;2.40;;
31746;SDS011;18319;48.974;8.462;2022-08-20T07:00:08;3.42;;;3.15;;
31746;SDS011;18319;48.974;8.462;2022-08-20T07:02:38;2.88;;;2.63;;
31746;SDS011;18319;48.974;8.462;2022-08-20T07:05:06;3.28;;;2.97;;
31746;SDS011;18319;48.974;8.462;2022-08-20T07:07:35;2.88;;;2.58;;
31746;SDS011;18319;48.974;8.462;2022-08-20T07:10:03;4.00;;;3.15;;
31746;SDS011;18319;48.974;8.462;2022-08-20T07:12:31;3.42;;;3.13;;
31746;SDS011;18319;48.974;8.462;2022-08-20T07:14:58;3.03;;;2.83;;
31746;SDS011;18319;48.974;8.462;2022-08-20T07:17:27;2.97;;;2.70;;
31746;SDS011;18319;48.974;8.462;2022-08-20T07:19:54;2.78;;;2.58;;
31746;SDS011;18319;48.974;8.462;2022-08-20T07:22:21;2.40;;;2.30;;
31746;SDS011;18319;48.974;8.462;2022-08-20T07:24:50;2.90;;;2.70;;
31746;SDS011;18319;48.974;8.462;2022-08-20T07:27:19;2.42;;;2.22;;
31746;SDS011;18319;48.974;8.462;2022-08-20T07:29:47;2.55;;;2.25;;
31746;SDS011;18319;48.974;8.462;2022-08-20T07:32:34;2.47;;;1.98;;
31746;SDS011;18319;48.974;8.462;2022-08-20T07:35:02;5.15;;;2.03;;
31746;SDS011;18319;48.974;8.462;2022-08-20T07:37:30;2.55;;;2.35;;
31746;SDS011;18319;48.974;8.462;2022-08-20T07:40:04;3.03;;;1.70;;
31746;SDS011;18319;48.974;8.462;2022-08-20T07:42:31;2.47;;;1.80;;
31746;SDS011;18319;48.974;8.462;2022-08-20T07:44:58;2.03;;;1.92;;
31746;SDS011;18319;48.974;8.462;2022-08-20T07:47:29;2.72;;;2.30;;
31746;SDS011;18319;48.974;8.462;2022-08-20T07:49:58;1.50;;;1.40;;
31746;SDS011;18319;48.974;8.462;2022-08-20T07:52:25;3.22;;;1.70;;
31746;SDS011;18319;48.974;8.462;2022-08-20T07:54:52;2.08;;;1.98;;
31746;SDS011;18319;48.974;8.462;2022-08-20T07:57:20;1.70;;;1.60;;
31746;SDS011;18319;48.974;8.462;2022-08-20T07:59:47;2.17;;;1.80;;
31746;SDS011;18319;48.974;8.462;2022-08-20T08:02:14;1.92;;;1.80;;
31746;SDS011;18319;48.974;8.462;2022-08-20T08:04:41;1.75;;;1.65;;
31746;SDS011;18319;48.974;8.462;2022-08-20T08:07:07;1.88;;;1.77;;
31746;SDS011;18319;48.974;8.462;2022-08-20T08:09:34;1.42;;;1.35;;
31746;SDS011;18319;48.974;8.462;2022-08-20T08:12:02;1.27;;;1.17;;
31746;SDS011;18319;48.974;8.462;2022-08-20T08:14:30;2.03;;;1.70;;
31746;SDS011;18319;48.974;8.462;2022-08-20T08:17:00;2.25;;;1.60;;
31746;SDS011;18319;48.974;8.462;2022-08-20T08:19:30;1.80;;;1.70;;
31746;SDS011;18319;48.974;8.462;2022-08-20T08:22:03;2.15;;;1.92;;
31746;SDS011;18319;48.974;8.462;2022-08-20T08:24:31;2.15;;;1.95;;
31746;SDS011;18319;48.974;8.462;2022-08-20T08:26:58;1.98;;;1.88;;
31746;SDS011;18319;48.974;8.462;2022-08-20T08:29:25;1.85;;;1.65;;
31746;SDS011;18319;48.974;8.462;2022-08-20T08:31:54;1.88;;;1.77;;
31746;SDS011;18319;48.974;8.462;2022-08-20T08:34:21;2.05;;;1.88;;
31746;SDS011;18319;48.974;8.462;2022-08-20T08:36:49;2.70;;;2.15;;
31746;SDS011;18319;48.974;8.462;2022-08-20T08:39:17;4.03;;;2.08;;
31746;SDS011;18319;48.974;8.462;2022-08-20T08:41:44;2.20;;;1.95;;
31746;SDS011;18319;48.974;8.462;2022-08-20T08:44:14;1.85;;;1.75;;
31746;SDS011;18319;48.974;8.462;2022-08-20T08:46:47;2.30;;;2.20;;
31746;SDS011;18319;48.974;8.462;2022-08-20T08:49:19;2.17;;;1.98;;
31746;SDS011;18319;48.974;8.462;2022-08-20T08:51:50;2.08;;;1.88;;
31746;SDS011;18319;48.974;8.462;2022-08-20T08:54:21;2.33;;;2.10;;
31746;SDS011;18319;48.974;8.462;2022-08-20T08:56:51;1.95;;;1.83;;
31746;SDS011;18319;48.974;8.462;2022-08-20T08:59:18;1.73;;;1.63;;
31746;SDS011;18319;48.974;8.462;2022-08-20T09:01:47;2.00;;;1.90;;
31746;SDS011;18319;48.974;8.462;2022-08-20T09:04:16;2.28;;;2.13;;
31746;SDS011;18319;48.974;8.462;2022-08-20T09:06:47;2.15;;;1.55;;
31746;SDS011;18319;48.974;8.462;2022-08-20T09:09:18;1.95;;;1.85;;
31746;SDS011;18319;48.974;8.462;2022-08-20T09:11:50;1.80;;;1.70;;
31746;SDS011;18319;48.974;8.462;2022-08-20T09:14:24;2.00;;;1.77;;
31746;SDS011;18319;48.974;8.462;2022-08-20T09:16:51;3.22;;;2.08;;
31746;SDS011;18319;48.974;8.462;2022-08-20T09:19:20;2.03;;;1.90;;
31746;SDS011;18319;48.974;8.462;2022-08-20T09:21:47;1.80;;;1.58;;
31746;SDS011;18319;48.974;8.462;2022-08-20T09:24:14;1.83;;;1.73;;
31746;SDS011;18319;48.974;8.462;2022-08-20T09:26:40;1.92;;;1.60;;
31746;SDS011;18319;48.974;8.462;2022-08-20T09:29:07;2.03;;;1.90;;
31746;SDS011;18319;48.974;8.462;2022-08-20T09:31:34;3.33;;;1.75;;
31746;SDS011;18319;48.974;8.462;2022-08-20T09:34:02;1.50;;;1.27;;
31746;SDS011;18319;48.974;8.462;2022-08-20T09:36:30;1.60;;;1.50;;
31746;SDS011;18319;48.974;8.462;2022-08-20T09:38:57;1.75;;;1.63;;
31746;SDS011;18319;48.974;8.462;2022-08-20T09:41:24;1.98;;;1.40;;
31746;SDS011;18319;48.974;8.462;2022-08-20T09:43:51;2.35;;;1.38;;
31746;SDS011;18319;48.974;8.462;2022-08-20T09:46:18;1.60;;;1.50;;
31746;SDS011;18319;48.974;8.462;2022-08-20T09:48:47;1.83;;;1.73;;
31746;SDS011;18319;48.974;8.462;2022-08-20T09:51:13;2.00;;;1.30;;
31746;SDS011;18319;48.974;8.462;2022-08-20T09:53:42;1.30;;;1.20;;
31746;SDS011;18319;48.974;8.462;2022-08-20T09:56:10;2.30;;;1.27;;
31746;SDS011;18319;48.974;8.462;2022-08-20T09:58:39;1.20;;;1.15;;
31746;SDS011;18319;48.974;8.462;2022-08-20T10:01:14;0.80;;;0.80;;
31746;SDS011;18319;48.974;8.462;2022-08-20T10:03:43;1.30;;;1.10;;
31746;SDS011;18319;48.974;8.462;2022-08-20T10:06:12;1.77;;;0.85;;
31746;SDS011;18319;48.974;8.462;2022-08-20T10:08:42;0.80;;;0.80;;
31746;SDS011;18319;48.974;8.462;2022-08-20T10:11:09;0.82;;;0.82;;
31746;SDS011;18319;48.974;8.462;2022-08-20T10:13:36;1.02;;;1.02;;
31746;SDS011;18319;48.974;8.462;2022-08-20T10:16:03;0.95;;;0.95;;
31746;SDS011;18319;48.974;8.462;2022-08-20T10:18:30;0.88;;;0.88;;
31746;SDS011;18319;48.974;8.462;2022-08-20T10:20:57;0.88;;;0.88;;
31746;SDS011;18319;48.974;8.462;2022-08-20T10:23:24;0.98;;;0.90;;
31746;SDS011;18319;48.974;8.462;2022-08-20T10:25:52;0.73;;;0.73;;
31746;SDS011;18319;48.974;8.462;2022-08-20T10:28:19;2.15;;;0.65;;
31746;SDS011;18319;48.974;8.462;2022-08-20T10:30:46;1.85;;;0.73;;
31746;SDS011;18319;48.974;8.462;2022-08-20T10:33:13;1.85;;;0.70;;
31746;SDS011;18319;48.974;8.462;2022-08-20T10:35:40;0.85;;;0.70;;
31746;SDS011;18319;48.974;8.462;2022-08-20T10:38:06;0.63;;;0.63;;
31746;SDS011;18319;48.974;8.462;2022-08-20T10:40:33;0.95;;;0.80;;
31746;SDS011;18319;48.974;8.462;2022-08-20T10:43:02;0.90;;;0.90;;
31746;SDS011;18319;48.974;8.462;2022-08-20T10:45:29;0.80;;;0.80;;
31746;SDS011;18319;48.974;8.462;2022-08-20T10:47:57;1.80;;;0.90;;
31746;SDS011;18319;48.974;8.462;2022-08-20T10:50:24;0.85;;;0.70;;
31746;SDS011;18319;48.974;8.462;2022-08-20T10:52:51;0.80;;;0.80;;
31746;SDS011;18319;48.974;8.462;2022-08-20T10:55:18;0.80;;;0.80;;
31746;SDS011;18319;48.974;8.462;2022-08-20T10:57:46;0.60;;;0.60;;
31746;SDS011;18319;48.974;8.462;2022-08-20T11:00:14;0.70;;;0.70;;
31746;SDS011;18319;48.974;8.462;2022-08-20T11:02:43;1.63;;;0.90;;
31746;SDS011;18319;48.974;8.462;2022-08-20T11:05:10;0.70;;;0.70;;
31746;SDS011;18319;48.974;8.462;2022-08-20T11:07:38;0.75;;;0.75;;
31746;SDS011;18319;48.974;8.462;2022-08-20T11:10:06;0.73;;;0.73;;
31746;SDS011;18319;48.974;8.462;2022-08-20T11:12:34;1.00;;;1.00;;
31746;SDS011;18319;48.974;8.462;2022-08-20T11:15:01;0.80;;;0.80;;
31746;SDS011;18319;48.974;8.462;2022-08-20T11:17:30;0.90;;;0.90;;
31746;SDS011;18319;48.974;8.462;2022-08-20T11:19:58;1.08;;;1.08;;
31746;SDS011;18319;48.974;8.462;2022-08-20T11:22:26;1.05;;;1.05;;
31746;SDS011;18319;48.974;8.462;2022-08-20T11:24:53;1.33;;;1.23;;
31746;SDS011;18319;48.974;8.462;2022-08-20T11:27:22;0.90;;;0.90;;
31746;SDS011;18319;48.974;8.462;2022-08-20T11:29:51;0.90;;;0.90;;
31746;SDS011;18319;48.974;8.462;2022-08-20T11:32:18;1.13;;;0.60;;
31746;SDS011;18319;48.974;8.462;2022-08-20T11:34:47;1.08;;;0.98;;
31746;SDS011;18319;48.974;8.462;2022-08-20T11:37:15;0.68;;;0.68;;
31746;SDS011;18319;48.974;8.462;2022-08-20T11:39:43;0.73;;;0.73;;
31746;SDS011;18319;48.974;8.462;2022-08-20T11:42:10;0.60;;;0.60;;
31746;SDS011;18319;48.974;8.462;2022-08-20T11:44:37;0.85;;;0.80;;
31746;SDS011;18319;48.974;8.462;2022-08-20T11:47:04;1.02;;;0.70;;
31746;SDS011;18319;48.974;8.462;2022-08-20T11:49:33;0.73;;;0.65;;
31746;SDS011;18319;48.974;8.462;2022-08-20T11:52:03;0.65;;;0.65;;
31746;SDS011;18319;48.974;8.462;2022-08-20T11:54:30;0.57;;;0.57;;
31746;SDS011;18319;48.974;8.462;2022-08-20T11:56:58;0.85;;;0.60;;
31746;SDS011;18319;48.974;8.462;2022-08-20T11:59:24;0.50;;;0.50;;
31746;SDS011;18319;48.974;8.462;2022-08-20T12:01:52;0.45;;;0.45;;
31746;SDS011;18319;48.974;8.462;2022-08-20T12:04:20;0.52;;;0.52;;
31746;SDS011;18319;48.974;8.462;2022-08-20T12:06:47;0.25;;;0.25;;
31746;SDS011;18319;48.974;8.462;2022-08-20T12:09:15;0.30;;;0.30;;
31746;SDS011;18319;48.974;8.462;2022-08-20T12:11:43;0.40;;;0.40;;
31746;SDS011;18319;48.974;8.462;2022-08-20T12:14:10;0.20;;;0.20;;
31746;SDS011;18319;48.974;8.462;2022-08-20T12:16:37;0.20;;;0.20;;
31746;SDS011;18319;48.974;8.462;2022-08-20T12:19:03;0.65;;;0.30;;
31746;SDS011;18319;48.974;8.462;2022-08-20T12:21:30;1.45;;;0.20;;
31746;SDS011;18319;48.974;8.462;2022-08-20T12:23:57;0.20;;;0.20;;
31746;SDS011;18319;48.974;8.462;2022-08-20T12:26:25;0.70;;;0.20;;
31746;SDS011;18319;48.974;8.462;2022-08-20T12:28:52;0.63;;;0.25;;
31746;SDS011;18319;48.974;8.462;2022-08-20T12:31:20;0.55;;;0.20;;
31746;SDS011;18319;48.974;8.462;2022-08-20T12:33:46;0.25;;;0.25;;
31746;SDS011;18319;48.974;8.462;2022-08-20T12:36:13;0.25;;;0.25;;
31746;SDS011;18319;48.974;8.462;2022-08-20T12:38:40;1.10;;;0.25;;
31746;SDS011;18319;48.974;8.462;2022-08-20T12:41:07;0.38;;;0.30;;
31746;SDS011;18319;48.974;8.462;2022-08-20T12:43:35;0.20;;;0.20;;
31746;SDS011;18319;48.974;8.462;2022-08-20T12:46:02;0.35;;;0.20;;
31746;SDS011;18319;48.974;8.462;2022-08-20T12:48:29;0.20;;;0.20;;
31746;SDS011;18319;48.974;8.462;2022-08-20T12:50:55;0.38;;;0.15;;
31746;SDS011;18319;48.974;8.462;2022-08-20T12:53:22;0.38;;;0.25;;
31746;SDS011;18319;48.974;8.462;2022-08-20T12:55:49;0.20;;;0.20;;
31746;SDS011;18319;48.974;8.462;2022-08-20T12:58:16;0.20;;;0.20;;
31746;SDS011;18319;48.974;8.462;2022-08-20T13:00:44;0.10;;;0.10;;
31746;SDS011;18319;48.974;8.462;2022-08-20T13:03:12;0.22;;;0.22;;
31746;SDS011;18319;48.974;8.462;2022-08-20T13:05:39;0.43;;;0.30;;
31746;SDS011;18319;48.974;8.462;2022-08-20T13:08:06;1.60;;;0.20;;
31746;SDS011;18319;48.974;8.462;2022-08-20T13:10:35;0.20;;;0.20;;
31746;SDS011;18319;48.974;8.462;2022-08-20T13:13:08;0.20;;;0.20;;
31746;SDS011;18319;48.974;8.462;2022-08-20T13:15:35;0.20;;;0.20;;
31746;SDS011;18319;48.974;8.462;2022-08-20T13:18:06;0.15;;;0.15;;
31746;SDS011;18319;48.974;8.462;2022-08-20T13:20:33;0.28;;;0.28;;
31746;SDS011;18319;48.974;8.462;2022-08-20T13:23:01;0.10;;;0.10;;
31746;SDS011;18319;48.974;8.462;2022-08-20T13:25:30;0.70;;;0.32;;
31746;SDS011;18319;48.974;8.462;2022-08-20T13:28:00;0.20;;;0.20;;
31746;SDS011;18319;48.974;8.462;2022-08-20T13:30:29;0.40;;;0.40;;
31746;SDS011;18319;48.974;8.462;2022-08-20T13:32:57;0.38;;;0.20;;
31746;SDS011;18319;48.974;8.462;2022-08-20T13:35:25;0.20;;;0.20;;
31746;SDS011;18319;48.974;8.462;2022-08-20T13:37:52;0.30;;;0.30;;
31746;SDS011;18319;48.974;8.462;2022-08-20T13:40:19;0.93;;;0.20;;
31746;SDS011;18319;48.974;8.462;2022-08-20T13:42:46;0.30;;;0.30;;
31746;SDS011;18319;48.974;8.462;2022-08-20T13:45:13;0.30;;;0.30;;
31746;SDS011;18319;48.974;8.462;2022-08-20T13:47:40;0.68;;;0.20;;
31746;SDS011;18319;48.974;8.462;2022-08-20T13:50:10;0.98;;;0.38;;
31746;SDS011;18319;48.974;8.462;2022-08-20T13:52:41;0.40;;;0.20;;
31746;SDS011;18319;48.974;8.462;2022-08-20T13:55:09;0.50;;;0.20;;
31746;SDS011;18319;48.974;8.462;2022-08-20T13:57:38;0.40;;;0.40;;
31746;SDS011;18319;48.974;8.462;2022-08-20T14:00:08;0.35;;;0.20;;
31746;SDS011;18319;48.974;8.462;2022-08-20T14:02:37;0.63;;;0.50;;
31746;SDS011;18319;48.974;8.462;2022-08-20T14:05:04;0.22;;;0.22;;
31746;SDS011;18319;48.974;8.462;2022-08-20T14:07:33;0.38;;;0.30;;
31746;SDS011;18319;48.974;8.462;2022-08-20T14:10:05;0.77;;;0.50;;
31746;SDS011;18319;48.974;8.462;2022-08-20T14:12:34;1.15;;;0.57;;
31746;SDS011;18319;48.974;8.462;2022-08-20T14:15:01;0.95;;;0.40;;
31746;SDS011;18319;48.974;8.462;2022-08-20T14:17:29;1.40;;;0.57;;
31746;SDS011;18319;48.974;8.462;2022-08-20T14:19:58;0.40;;;0.40;;
31746;SDS011;18319;48.974;8.462;2022-08-20T14:22:26;0.70;;;0.40;;
31746;SDS011;18319;48.974;8.462;2022-08-20T14:24:53;0.98;;;0.70;;
31746;SDS011;18319;48.974;8.462;2022-08-20T14:27:22;2.47;;;0.63;;
31746;SDS011;18319;48.974;8.462;2022-08-20T14:29:49;0.82;;;0.68;;
31746;SDS011;18319;48.974;8.462;2022-08-20T14:32:16;0.43;;;0.43;;
31746;SDS011;18319;48.974;8.462;2022-08-20T14:34:44;0.75;;;0.70;;
31746;SDS011;18319;48.974;8.462;2022-08-20T14:37:12;1.10;;;0.98;;
31746;SDS011;18319;48.974;8.462;2022-08-20T14:39:40;5.85;;;1.98;;
31746;SDS011;18319;48.974;8.462;2022-08-20T14:42:08;0.57;;;0.50;;
31746;SDS011;18319;48.974;8.462;2022-08-20T14:44:36;0.65;;;0.60;;
31746;SDS011;18319;48.974;8.462;2022-08-20T14:47:08;2.08;;;0.90;;
31746;SDS011;18319;48.974;8.462;2022-08-20T14:49:36;2.05;;;1.30;;
31746;SDS011;18319;48.974;8.462;2022-08-20T14:52:03;1.17;;;0.68;;
31746;SDS011;18319;48.974;8.462;2022-08-20T14:54:30;0.90;;;0.70;;
31746;SDS011;18319;48.974;8.462;2022-08-20T14:56:57;0.90;;;0.50;;
31746;SDS011;18319;48.974;8.462;2022-08-20T14:59:24;1.35;;;0.90;;